Time;durP1;ratioP1;P1;durP2;ratioP2;P2;SDS_P1;SDS_P2;PMS_P1;PMS_P2;Temp;Humidity;BMP_temperature;BMP_pressure;BME280_temperature;BME280_humidity;BME280_pressure;Samples;Min_cycle;Max_cycle;Signal;HPM_P1;HPM_P2
2023/02/13 00:00:44;;;;;;;9.88;8.25;;;15.50;72.80;;;;;;4226142;27;20099;-63
2023/02/13 00:03:25;;;;;;;;;;;15.50;73.60;;;;;;4211473;28;20136;-64
2023/02/13 00:06:07;;;;;;;9.18;8.25;;;15.40;72.90;;;;;;4226495;27;19931;-64
2023/02/13 00:08:48;;;;;;;9.98;8.68;;;15.50;74.00;;;;;;4226714;27;20050;-63
2023/02/13 00:11:30;;;;;;;13.88;9.80;;;15.40;73.90;;;;;;4224951;28;20142;-64
2023/02/13 00:14:11;;;;;;;13.95;9.93;;;15.40;73.90;;;;;;4192904;28;20070;-63
2023/02/13 00:16:52;;;;;;;13.43;9.77;;;15.40;73.80;;;;;;4192738;28;20158;-65
2023/02/13 00:19:33;;;;;;;12.10;9.65;;;15.40;73.50;;;;;;4192825;28;20636;-64
2023/02/13 00:22:15;;;;;;;12.35;9.35;;;15.40;73.70;;;;;;4176530;28;20102;-64
2023/02/13 00:24:56;;;;;;;11.75;9.82;;;15.30;73.70;;;;;;4176049;28;20064;-64
2023/02/13 00:27:38;;;;;;;15.60;9.88;;;15.40;73.60;;;;;;4176309;28;20526;-63
2023/02/13 00:30:20;;;;;;;11.10;9.27;;;15.30;73.50;;;;;;4182927;28;20448;-62
2023/02/13 00:33:00;;;;;;;12.25;10.15;;;15.30;73.40;;;;;;4186742;28;20059;-63
2023/02/13 00:35:41;;;;;;;12.60;9.65;;;15.30;73.30;;;;;;4176348;28;20056;-63
2023/02/13 00:38:22;;;;;;;13.82;10.35;;;15.30;73.30;;;;;;4180722;28;20052;-63
2023/02/13 00:41:03;;;;;;;11.82;9.35;;;15.30;73.20;;;;;;4192934;28;20055;-63
2023/02/13 00:43:47;;;;;;;11.90;9.80;;;15.30;73.30;;;;;;4176526;28;20048;-62
2023/02/13 00:46:28;;;;;;;12.73;9.90;;;15.30;73.20;;;;;;4187884;28;20191;-63
2023/02/13 00:49:09;;;;;;;13.00;9.70;;;15.30;73.40;;;;;;4186836;28;20407;-62
2023/02/13 00:51:50;;;;;;;11.18;9.48;;;15.30;73.30;;;;;;4192752;28;20200;-63
2023/02/13 00:54:31;;;;;;;12.52;9.32;;;15.20;73.40;;;;;;4191470;28;20063;-64
2023/02/13 00:57:12;;;;;;;13.55;9.77;;;15.20;73.20;;;;;;4191124;28;20099;-64
2023/02/13 00:59:57;;;;;;;12.80;9.95;;;15.20;73.40;;;;;;4191536;28;20054;-63
2023/02/13 01:02:38;;;;;;;14.10;9.77;;;15.20;73.50;;;;;;4192593;28;20055;-61
2023/02/13 01:05:19;;;;;;;14.30;10.60;;;15.20;73.50;;;;;;4192895;28;20102;-62
2023/02/13 01:08:01;;;;;;;13.40;10.73;;;15.20;73.50;;;;;;4190133;28;20055;-63
2023/02/13 01:10:43;;;;;;;15.02;10.23;;;15.20;73.60;;;;;;4192797;28;20130;-62
2023/02/13 01:13:25;;;;;;;15.27;10.18;;;15.20;73.50;;;;;;4222514;28;20043;-64
2023/02/13 01:16:08;;;;;;;12.60;9.38;;;15.20;73.60;;;;;;4223985;28;20125;-63
2023/02/13 01:18:49;;;;;;;16.00;11.10;;;15.10;73.40;;;;;;4224747;28;20084;-62
2023/02/13 01:21:30;;;;;;;12.70;10.07;;;15.10;73.50;;;;;;4206574;28;20051;-63
2023/02/13 01:24:11;;;;;;;15.05;10.02;;;15.10;73.70;;;;;;4206632;28;20109;-63
2023/02/13 01:26:52;;;;;;;14.88;10.45;;;15.10;73.70;;;;;;4214545;28;20131;-63
2023/02/13 01:29:33;;;;;;;14.07;10.57;;;15.10;73.80;;;;;;4224895;28;20046;-63
2023/02/13 01:32:16;;;;;;;13.18;10.32;;;15.10;74.00;;;;;;4223434;28;20072;-63
2023/02/13 01:34:58;;;;;;;12.48;9.75;;;15.10;73.90;;;;;;4224769;28;20059;-63
2023/02/13 01:37:38;;;;;;;15.23;11.63;;;15.10;74.00;;;;;;4223832;27;20092;-64
2023/02/13 01:40:20;;;;;;;;;;;15.10;74.00;;;;;;4207646;28;20047;-68
2023/02/13 01:43:01;;;;;;;15.52;11.23;;;15.00;74.10;;;;;;4204883;28;19954;-67
2023/02/13 01:45:43;;;;;;;13.82;10.68;;;15.00;75.00;;;;;;4206176;28;20065;-67
2023/02/13 01:48:27;;;;;;;17.42;10.80;;;15.00;75.50;;;;;;4213271;28;20055;-67
2023/02/13 01:51:17;;;;;;;16.90;11.52;;;15.00;74.40;;;;;;4224295;28;20397;-68
2023/02/13 01:54:02;;;;;;;16.40;11.45;;;15.00;74.30;;;;;;4224986;28;20054;-69
2023/02/13 01:56:48;;;;;;;16.75;12.35;;;15.00;73.80;;;;;;4221160;28;20182;-68
2023/02/13 01:59:33;;;;;;;14.32;10.85;;;15.00;72.90;;;;;;4224508;28;20070;-68
2023/02/13 02:02:15;;;;;;;16.08;11.02;;;15.00;73.40;;;;;;4210226;28;20498;-68
2023/02/13 02:04:58;;;;;;;14.45;10.80;;;14.90;73.70;;;;;;4225685;28;20058;-68
2023/02/13 02:07:40;;;;;;;16.63;12.02;;;14.90;73.30;;;;;;4206228;28;20055;-66
2023/02/13 02:10:22;;;;;;;16.17;11.23;;;14.90;72.30;;;;;;4197473;28;20047;-67
2023/02/13 02:13:07;;;;;;;12.70;10.10;;;14.90;72.50;;;;;;4208609;28;20063;-68
2023/02/13 02:15:50;;;;;;;12.98;11.05;;;14.90;73.10;;;;;;4208523;28;20051;-68
2023/02/13 02:18:31;;;;;;;14.10;11.60;;;14.90;74.00;;;;;;4225201;28;20071;-68
2023/02/13 02:21:57;;;;;;;15.27;12.13;;;14.90;74.10;;;;;;4227255;27;20104;-68
2023/02/13 02:25:11;;;;;;;14.80;11.45;;;14.90;73.40;;;;;;4212367;28;20112;-67
2023/02/13 02:28:16;;;;;;;14.43;10.88;;;14.80;74.30;;;;;;4163695;27;20401;-67
2023/02/13 02:31:33;;;;;;;14.82;10.93;;;14.80;74.40;;;;;;4227368;27;20062;-67
2023/02/13 02:34:25;;;;;;;14.95;11.82;;;14.80;73.90;;;;;;4225852;28;20074;-68
2023/02/13 02:37:20;;;;;;;18.35;11.77;;;14.80;74.50;;;;;;4210293;28;20059;-66
2023/02/13 02:40:10;;;;;;;16.75;13.13;;;14.80;75.50;;;;;;4210656;28;20062;-69
2023/02/13 02:43:20;;;;;;;15.18;12.15;;;14.80;74.80;;;;;;4225827;28;20140;-68
2023/02/13 02:46:12;;;;;;;17.27;13.55;;;14.80;74.30;;;;;;4210111;28;20509;-67
2023/02/13 02:52:06;;;;;;;18.42;13.50;;;14.80;74.80;;;;;;4208864;28;20047;-67
2023/02/13 02:55:08;;;;;;;16.45;13.68;;;14.80;75.50;;;;;;4209602;28;20051;-67
2023/02/13 03:07:20;;;;;;;16.88;13.25;;;15.10;75.80;;;;;;4227714;27;20065;-68
2023/02/13 03:13:21;;;;;;;17.20;13.38;;;15.20;74.30;;;;;;4227279;28;20050;-69
2023/02/13 03:22:24;;;;;;;18.00;14.05;;;15.30;73.80;;;;;;4227799;27;20126;-68
2023/02/13 03:25:13;;;;;;;14.27;12.50;;;15.30;73.70;;;;;;4227631;27;20054;-68
2023/02/13 03:31:03;;;;;;;15.88;12.52;;;15.30;74.00;;;;;;4210642;28;20200;-70
2023/02/13 03:33:56;;;;;;;14.30;12.55;;;15.40;74.00;;;;;;4210519;28;20120;-69
2023/02/13 03:39:53;;;;;;;17.50;13.23;;;15.50;74.20;;;;;;4209517;28;20055;-69
2023/02/13 03:42:39;;;;;;;18.42;13.65;;;15.50;73.70;;;;;;4210604;28;20096;-68
2023/02/13 03:51:32;;;;;;;17.08;13.25;;;15.60;73.50;;;;;;4209308;28;20517;-68
2023/02/13 03:54:19;;;;;;;17.33;13.23;;;15.60;73.50;;;;;;4209249;28;20059;-68
2023/02/13 04:00:03;;;;;;;15.80;13.05;;;15.60;73.70;;;;;;4201123;28;20551;-68
2023/02/13 04:03:00;;;;;;;16.70;13.20;;;15.60;74.50;;;;;;4210163;28;20059;-65
2023/02/13 04:05:44;;;;;;;15.38;12.10;;;15.70;73.40;;;;;;4210114;28;20050;-68
2023/02/13 04:08:25;;;;;;;16.40;12.20;;;15.70;73.40;;;;;;4224862;27;20054;-66
2023/02/13 04:11:13;;;;;;;15.90;12.63;;;15.70;73.40;;;;;;4234075;28;20120;-68
2023/02/13 04:13:58;;;;;;;17.13;13.02;;;15.70;73.20;;;;;;4211725;28;20126;-67
2023/02/13 04:16:42;;;;;;;18.60;13.77;;;15.70;73.10;;;;;;4227099;28;20059;-68
2023/02/13 04:19:25;;;;;;;17.05;12.88;;;15.80;73.00;;;;;;4208846;28;20426;-68
2023/02/13 04:22:06;;;;;;;16.40;12.30;;;15.80;73.00;;;;;;4209871;28;20128;-67
2023/02/13 04:24:48;;;;;;;18.20;13.57;;;15.80;73.00;;;;;;4208785;28;20043;-67
2023/02/13 04:27:29;;;;;;;15.35;13.02;;;15.80;73.00;;;;;;4210433;28;20510;-67
2023/02/13 04:30:13;;;;;;;15.68;12.73;;;15.90;73.00;;;;;;4209814;28;20059;-68
2023/02/13 04:32:53;;;;;;;20.13;12.65;;;15.90;73.00;;;;;;4210018;28;20189;-68
2023/02/13 04:35:35;;;;;;;17.38;13.15;;;15.90;72.70;;;;;;4210028;28;20805;-68
2023/02/13 04:38:16;;;;;;;16.98;13.40;;;16.00;72.60;;;;;;4209717;28;20055;-68
2023/02/13 04:40:56;;;;;;;16.40;12.18;;;15.90;72.50;;;;;;4226350;27;20140;-69
2023/02/13 04:43:37;;;;;;;19.02;12.60;;;15.90;72.40;;;;;;4226106;27;20502;-69
2023/02/13 04:46:19;;;;;;;14.85;11.55;;;15.90;72.40;;;;;;4226707;27;20050;-69
2023/02/13 04:49:00;;;;;;;15.63;11.93;;;15.90;72.70;;;;;;4208324;28;20740;-68
2023/02/13 04:51:41;;;;;;;17.30;13.07;;;15.90;73.00;;;;;;4226057;27;20046;-67
2023/02/13 04:54:22;;;;;;;16.45;11.85;;;15.90;73.10;;;;;;4226387;27;20505;-67
2023/02/13 04:57:03;;;;;;;15.02;12.07;;;16.00;72.90;;;;;;4223051;27;20054;-68
2023/02/13 04:59:45;;;;;;;14.38;11.85;;;16.00;72.50;;;;;;4224987;27;20060;-68
2023/02/13 05:02:27;;;;;;;17.58;13.00;;;16.00;72.30;;;;;;4226540;27;20120;-68
2023/02/13 05:05:08;;;;;;;15.77;12.45;;;16.00;72.20;;;;;;4225797;27;20055;-69
2023/02/13 05:07:49;;;;;;;17.15;12.60;;;16.00;72.10;;;;;;4225624;27;20062;-68
2023/02/13 05:10:30;;;;;;;17.02;13.30;;;15.90;72.20;;;;;;4225700;27;20054;-69
2023/02/13 05:13:12;;;;;;;18.15;13.55;;;15.90;72.20;;;;;;4209020;27;20047;-68
2023/02/13 05:15:52;;;;;;;17.58;13.60;;;15.90;72.30;;;;;;4225664;28;20180;-68
2023/02/13 05:18:35;;;;;;;16.60;13.00;;;15.90;72.30;;;;;;4224793;28;20173;-68
2023/02/13 05:24:14;;;;;;;16.85;12.85;;;15.80;72.50;;;;;;4221743;28;20055;-68
2023/02/13 05:26:54;;;;;;;18.20;13.10;;;15.70;72.80;;;;;;4225603;28;20071;-69
2023/02/13 05:29:35;;;;;;;19.27;14.23;;;15.70;73.00;;;;;;4225917;28;20477;-69
2023/02/13 05:32:16;;;;;;;18.58;13.80;;;15.70;73.40;;;;;;4210453;28;20051;-69
2023/02/13 05:34:58;;;;;;;17.25;13.50;;;15.70;73.30;;;;;;4225801;27;20066;-69
2023/02/13 05:37:40;;;;;;;15.27;12.30;;;15.70;73.10;;;;;;4207613;28;20051;-68
2023/02/13 05:40:21;;;;;;;17.20;13.40;;;15.80;72.70;;;;;;4211728;28;20124;-69
2023/02/13 05:43:02;;;;;;;19.17;14.38;;;15.90;72.50;;;;;;4225559;28;20054;-69
2023/02/13 05:45:43;;;;;;;16.27;12.82;;;15.90;72.60;;;;;;4225411;28;20417;-68
2023/02/13 05:48:24;;;;;;;18.20;13.30;;;15.90;72.50;;;;;;4224838;28;20050;-68
2023/02/13 05:51:07;;;;;;;17.65;13.38;;;16.00;73.40;;;;;;4225072;28;20196;-69
2023/02/13 05:53:48;;;;;;;16.23;13.60;;;16.00;72.20;;;;;;4207906;28;20502;-69
2023/02/13 05:56:28;;;;;;;16.27;12.77;;;16.00;71.90;;;;;;4213930;28;20054;-69
2023/02/13 05:59:09;;;;;;;16.23;13.00;;;16.00;71.60;;;;;;4229379;28;20099;-68
2023/02/13 06:01:50;;;;;;;16.55;13.65;;;16.00;71.80;;;;;;4229442;27;20058;-69
2023/02/13 06:04:31;;;;;;;18.35;12.65;;;16.00;71.90;;;;;;4226297;27;20051;-68
2023/02/13 06:07:13;;;;;;;21.30;13.48;;;15.90;72.30;;;;;;4212299;28;20497;-68
2023/02/13 06:09:54;;;;;;;20.67;13.95;;;15.90;72.50;;;;;;4211849;28;20129;-69
2023/02/13 06:12:35;;;;;;;16.48;13.38;;;15.90;72.40;;;;;;4211717;28;20055;-68
2023/02/13 06:15:16;;;;;;;18.00;13.10;;;16.00;73.10;;;;;;4212529;28;20070;-68
2023/02/13 06:17:57;;;;;;;17.65;13.23;;;16.00;71.80;;;;;;4225926;27;20406;-67
2023/02/13 06:20:38;;;;;;;15.40;13.20;;;16.00;71.60;;;;;;4228520;28;20187;-68
2023/02/13 06:23:20;;;;;;;16.15;13.52;;;16.10;71.80;;;;;;4211691;28;20046;-68
2023/02/13 06:26:03;;;;;;;17.40;13.93;;;16.10;71.20;;;;;;4210495;28;20260;-69
2023/02/13 06:28:44;;;;;;;17.33;13.50;;;16.10;71.20;;;;;;4211589;28;20050;-69
2023/02/13 06:31:25;;;;;;;17.80;13.63;;;16.10;71.40;;;;;;4224117;27;20042;-68
2023/02/13 06:34:06;;;;;;;16.23;13.00;;;16.10;72.40;;;;;;4225763;27;20051;-69
2023/02/13 06:36:48;;;;;;;17.92;14.38;;;16.10;71.60;;;;;;4225602;28;20100;-68
2023/02/13 06:39:30;;;;;;;17.48;13.05;;;16.10;71.80;;;;;;4211680;28;20506;-66
2023/02/13 06:42:11;;;;;;;17.50;13.55;;;16.10;71.90;;;;;;4211799;28;20481;-68
2023/02/13 06:44:52;;;;;;;18.05;13.60;;;16.10;72.10;;;;;;4211763;28;20055;-65
2023/02/13 06:47:33;;;;;;;17.40;13.23;;;16.10;72.30;;;;;;4228369;27;20092;-66
2023/02/13 06:50:15;;;;;;;16.80;13.40;;;16.10;72.30;;;;;;4227188;27;20300;-67
2023/02/13 06:52:56;;;;;;;17.17;13.57;;;16.10;72.40;;;;;;4224628;28;20297;-66
2023/02/13 06:55:38;;;;;;;20.57;13.97;;;16.10;72.60;;;;;;4209738;28;20063;-67
2023/02/13 06:58:20;;;;;;;18.20;14.07;;;16.00;72.80;;;;;;4226804;27;20096;-66
2023/02/13 07:01:01;;;;;;;19.17;15.00;;;16.10;72.90;;;;;;4226188;28;20059;-68
2023/02/13 07:03:42;;;;;;;21.60;13.85;;;16.10;72.70;;;;;;4216303;28;20095;-69
2023/02/13 07:06:23;;;;;;;17.80;13.95;;;16.10;72.40;;;;;;4225824;28;20144;-70
2023/02/13 07:09:04;;;;;;;18.33;14.43;;;16.10;72.20;;;;;;4211008;28;20375;-69
2023/02/13 07:11:47;;;;;;;19.80;14.85;;;16.10;72.50;;;;;;4225957;27;20051;-69
2023/02/13 07:14:28;;;;;;;19.88;14.95;;;16.00;72.50;;;;;;4203854;28;20066;-64
2023/02/13 07:17:09;;;;;;;17.70;14.15;;;16.00;72.30;;;;;;4225055;28;20054;-64
2023/02/13 07:19:50;;;;;;;;;;;16.00;72.00;;;;;;4225572;27;20051;-64
2023/02/13 07:22:32;;;;;;;16.83;13.30;;;15.90;72.30;;;;;;4210384;28;19927;-65
2023/02/13 07:25:13;;;;;;;15.93;12.85;;;15.80;72.20;;;;;;4226049;27;20059;-65
2023/02/13 07:28:01;;;;;;;19.40;14.18;;;15.80;72.00;;;;;;4223505;28;20101;-65
2023/02/13 07:30:42;;;;;;;17.15;14.13;;;15.80;71.80;;;;;;4193961;28;20047;-65
2023/02/13 07:33:23;;;;;;;17.33;13.82;;;15.70;71.40;;;;;;4207309;28;20051;-65
2023/02/13 07:36:05;;;;;;;;;;;15.70;72.70;;;;;;4226223;27;20071;-65
2023/02/13 07:38:45;;;;;;;18.50;13.80;;;15.60;72.70;;;;;;4227349;28;19931;-65
2023/02/13 07:41:27;;;;;;;19.17;14.48;;;15.60;73.40;;;;;;4224631;27;20050;-65
2023/02/13 07:44:09;;;;;;;17.58;14.07;;;15.60;72.90;;;;;;4227716;27;20551;-64
2023/02/13 07:46:50;;;;;;;18.92;13.65;;;15.70;72.30;;;;;;4224842;27;20055;-63
2023/02/13 07:49:31;;;;;;;18.55;14.25;;;15.70;72.30;;;;;;4209393;28;20129;-65
2023/02/13 07:52:12;;;;;;;19.27;14.45;;;15.80;72.40;;;;;;4209397;28;20059;-65
2023/02/13 07:54:53;;;;;;;19.38;14.55;;;15.80;72.30;;;;;;4210738;28;20051;-65
2023/02/13 07:57:34;;;;;;;20.83;14.25;;;15.90;72.10;;;;;;4210208;28;20063;-65
2023/02/13 08:00:18;;;;;;;20.92;14.60;;;15.90;72.10;;;;;;4208901;28;20124;-65
2023/02/13 08:02:59;;;;;;;16.73;14.07;;;15.90;72.10;;;;;;4224265;27;20406;-65
2023/02/13 08:05:40;;;;;;;;;;;16.00;71.80;;;;;;4227523;27;20394;-65
2023/02/13 08:08:21;;;;;;;20.30;13.90;;;16.10;71.90;;;;;;4223266;27;20377;-64
2023/02/13 08:14:04;;;;;;;20.85;13.85;;;16.20;71.20;;;;;;4226560;27;20063;-65
2023/02/13 08:16:46;;;;;;;18.25;13.35;;;16.20;71.20;;;;;;4211147;27;20683;-65
2023/02/13 08:19:28;;;;;;;19.30;13.82;;;16.20;71.40;;;;;;4222753;27;20050;-63
2023/02/13 08:22:09;;;;;;;18.85;14.68;;;16.20;70.90;;;;;;4223177;27;20447;-65
2023/02/13 08:24:50;;;;;;;18.52;14.43;;;16.20;70.40;;;;;;4223841;28;20046;-65
2023/02/13 08:27:31;;;;;;;18.55;13.73;;;16.20;70.00;;;;;;4218112;28;20050;-65
2023/02/13 08:30:14;;;;;;;20.67;15.80;;;16.20;70.00;;;;;;4225236;28;20065;-64
2023/02/13 08:32:56;;;;;;;18.83;13.73;;;16.10;70.50;;;;;;4225768;28;20049;-64
2023/02/13 08:35:37;;;;;;;19.23;14.40;;;16.20;71.60;;;;;;4224911;27;20050;-64
2023/02/13 08:38:17;;;;;;;19.60;14.50;;;16.20;70.60;;;;;;4217672;27;20084;-65
2023/02/13 08:40:58;;;;;;;19.17;14.93;;;16.20;70.00;;;;;;4211765;27;20059;-65
2023/02/13 08:43:41;;;;;;;24.35;15.50;;;16.20;69.40;;;;;;4205325;28;20421;-64
2023/02/13 08:46:22;;;;;;;18.95;14.30;;;16.20;69.80;;;;;;4226434;27;20607;-64
2023/02/13 08:49:05;;;;;;;19.77;14.57;;;16.20;70.10;;;;;;4220250;27;20050;-64
2023/02/13 08:51:46;;;;;;;19.10;15.23;;;16.20;70.30;;;;;;4208710;28;20042;-69
2023/02/13 08:54:29;;;;;;;20.38;15.07;;;16.20;69.90;;;;;;4219725;27;20066;-70
2023/02/13 08:57:10;;;;;;;19.50;14.60;;;16.20;69.60;;;;;;4226429;27;20047;-67
2023/02/13 08:59:51;;;;;;;18.73;14.05;;;16.30;69.70;;;;;;4226353;27;20051;-72
2023/02/13 09:02:32;;;;;;;17.80;14.10;;;16.30;69.80;;;;;;4224136;27;20128;-70
2023/02/13 09:05:15;;;;;;;19.77;14.80;;;16.30;70.00;;;;;;4196587;28;20382;-74
2023/02/13 09:08:01;;;;;;;20.10;16.48;;;16.30;70.00;;;;;;4212459;28;20086;-72
2023/02/13 09:10:43;;;;;;;19.80;13.57;;;16.30;69.90;;;;;;4220449;28;20169;-72
2023/02/13 09:13:24;;;;;;;;;;;16.30;70.10;;;;;;4226400;28;20068;-73
2023/02/13 09:16:07;;;;;;;18.17;14.55;;;16.20;70.30;;;;;;4226075;27;20037;-73
2023/02/13 09:18:48;;;;;;;21.00;14.65;;;16.20;70.90;;;;;;4225753;27;20176;-73
2023/02/13 09:21:30;;;;;;;20.33;15.77;;;16.10;70.70;;;;;;4224786;28;20050;-74
2023/02/13 09:24:12;;;;;;;21.63;14.63;;;16.10;70.70;;;;;;4225686;27;20046;-74
2023/02/13 09:26:52;;;;;;;19.03;14.37;;;16.10;70.60;;;;;;4225818;28;20517;-72
2023/02/13 09:29:33;;;;;;;18.58;13.52;;;16.20;70.40;;;;;;4225151;28;20065;-69
2023/02/13 09:32:15;;;;;;;17.52;13.75;;;16.20;70.10;;;;;;4225690;28;20051;-71
2023/02/13 09:34:56;;;;;;;21.55;15.55;;;16.20;69.00;;;;;;4225286;28;20062;-62
2023/02/13 09:37:39;;;;;;;20.30;14.38;;;16.30;68.60;;;;;;4224381;28;20120;-63
2023/02/13 09:40:25;;;;;;;20.67;15.13;;;16.30;68.20;;;;;;4225444;28;20157;-63
2023/02/13 09:43:13;;;;;;;20.23;15.05;;;16.30;68.50;;;;;;4208881;28;20070;-61
2023/02/13 09:45:58;;;;;;;19.75;15.20;;;16.30;68.20;;;;;;4225796;28;20053;-61
2023/02/13 09:48:44;;;;;;;21.88;15.88;;;16.40;67.20;;;;;;4208404;28;20128;-63
2023/02/13 09:51:26;;;;;;;20.75;16.10;;;16.40;67.10;;;;;;4225000;28;20050;-62
2023/02/13 09:54:14;;;;;;;19.40;15.20;;;16.30;65.90;;;;;;4223885;28;20108;-62
2023/02/13 09:57:00;;;;;;;21.25;15.40;;;16.30;66.20;;;;;;4224504;28;20050;-63
2023/02/13 09:59:50;;;;;;;20.10;14.57;;;16.20;67.30;;;;;;4225784;28;20113;-62
2023/02/13 10:02:49;;;;;;;20.42;14.95;;;16.20;67.20;;;;;;4225706;28;20051;-62
2023/02/13 10:05:42;;;;;;;19.15;14.70;;;16.20;68.50;;;;;;4224011;28;20054;-62
2023/02/13 10:08:39;;;;;;;27.80;15.25;;;16.20;68.40;;;;;;4208107;28;21523;-63
2023/02/13 10:11:38;;;;;;;23.55;16.00;;;16.20;67.80;;;;;;4221304;28;20551;-63
2023/02/13 10:14:23;;;;;;;22.13;15.30;;;16.30;68.30;;;;;;4225150;28;20181;-62
2023/02/13 10:17:08;;;;;;;22.40;15.82;;;16.30;68.20;;;;;;4225187;28;20156;-63
2023/02/13 10:19:54;;;;;;;20.52;15.48;;;16.20;68.20;;;;;;4224126;28;20107;-62
2023/02/13 10:22:43;;;;;;;19.33;13.93;;;16.20;68.10;;;;;;4224150;28;20058;-63
2023/02/13 10:25:27;;;;;;;24.10;15.32;;;16.20;68.30;;;;;;4223553;28;20051;-62
2023/02/13 10:28:17;;;;;;;20.02;14.35;;;16.20;68.20;;;;;;4208317;28;20514;-63
2023/02/13 10:31:04;;;;;;;16.83;13.52;;;16.20;68.30;;;;;;4208685;28;20050;-63
2023/02/13 10:33:50;;;;;;;20.60;14.30;;;16.20;68.60;;;;;;4208330;28;20051;-63
2023/02/13 10:36:34;;;;;;;22.75;14.60;;;16.10;68.00;;;;;;4208603;28;20058;-63
2023/02/13 10:39:23;;;;;;;17.85;12.93;;;16.10;68.40;;;;;;4208924;28;20049;-61
2023/02/13 10:42:15;;;;;;;20.85;14.20;;;16.10;67.90;;;;;;4210646;28;20077;-62
2023/02/13 10:45:16;;;;;;;16.35;12.73;;;16.20;68.40;;;;;;4211106;28;20055;-64
2023/02/13 10:48:12;;;;;;;20.35;14.02;;;16.20;66.60;;;;;;4211627;28;20059;-62
2023/02/13 10:51:01;;;;;;;21.00;13.93;;;16.20;68.40;;;;;;4211516;28;20502;-62
2023/02/13 10:53:56;;;;;;;18.80;12.80;;;16.20;68.10;;;;;;4211340;28;20055;-62
2023/02/13 10:56:41;;;;;;;22.75;13.40;;;16.10;67.60;;;;;;4212798;28;20076;-62
2023/02/13 10:59:37;;;;;;;17.17;13.13;;;16.10;68.70;;;;;;4226905;27;20543;-62
2023/02/13 11:02:25;;;;;;;15.80;11.98;;;16.10;66.30;;;;;;4227460;27;20101;-62
2023/02/13 11:05:16;;;;;;;20.52;13.50;;;16.10;67.30;;;;;;4227219;27;20110;-62
2023/02/13 11:07:58;;;;;;;17.95;12.90;;;16.10;67.80;;;;;;4227260;27;20107;-63
2023/02/13 11:10:40;;;;;;;17.02;13.38;;;16.20;68.40;;;;;;4227105;28;20196;-62
2023/02/13 11:13:23;;;;;;;18.40;12.88;;;16.10;67.30;;;;;;4226486;28;20055;-62
2023/02/13 11:16:06;;;;;;;18.15;13.10;;;16.10;67.80;;;;;;4210555;28;20059;-62
2023/02/13 11:18:51;;;;;;;19.08;12.70;;;16.10;67.50;;;;;;4211202;28;20047;-62
2023/02/13 11:21:36;;;;;;;19.52;12.57;;;16.00;67.90;;;;;;4227545;28;20097;-62
2023/02/13 11:24:20;;;;;;;16.67;12.60;;;16.00;68.40;;;;;;4227553;28;20062;-62
2023/02/13 11:27:07;;;;;;;17.67;12.85;;;16.00;68.40;;;;;;4227544;27;20158;-63
2023/02/13 11:29:54;;;;;;;17.90;12.10;;;16.00;68.50;;;;;;4210637;28;20055;-62
2023/02/13 11:32:36;;;;;;;16.65;12.68;;;16.00;68.50;;;;;;4210686;28;20054;-62
2023/02/13 11:35:30;;;;;;;17.00;12.48;;;16.00;68.60;;;;;;4227449;27;20050;-71
2023/02/13 11:38:14;;;;;;;19.20;13.18;;;16.10;68.20;;;;;;4227643;27;20124;-70
2023/02/13 11:41:07;;;;;;;19.48;13.35;;;16.20;68.30;;;;;;4214246;27;20528;-74
2023/02/13 11:43:52;;;;;;;16.95;12.65;;;16.20;66.70;;;;;;4227412;27;20394;-70
2023/02/13 11:46:46;;;;;;;17.80;13.10;;;16.20;66.70;;;;;;4227801;27;20050;-70
2023/02/13 11:49:29;;;;;;;18.40;13.40;;;16.20;65.80;;;;;;4227258;27;20379;-62
2023/02/13 11:52:24;;;;;;;18.27;12.82;;;16.30;67.20;;;;;;4226739;28;20112;-62
2023/02/13 11:55:25;;;;;;;19.25;13.32;;;16.30;65.00;;;;;;4227345;27;20185;-62
2023/02/13 11:58:24;;;;;;;15.82;13.55;;;16.30;65.20;;;;;;4210253;28;20048;-62
2023/02/13 12:01:11;;;;;;;20.10;12.18;;;16.40;65.80;;;;;;4210240;28;20154;-63
2023/02/13 12:04:02;;;;;;;16.42;12.25;;;16.40;64.60;;;;;;4210570;28;20054;-62
2023/02/13 12:07:00;;;;;;;17.95;13.88;;;16.40;65.10;;;;;;4209325;28;20506;-62
2023/02/13 12:09:44;;;;;;;18.02;13.32;;;16.30;64.00;;;;;;4209939;28;20130;-70
2023/02/13 12:12:30;;;;;;;18.33;12.68;;;16.30;65.50;;;;;;4214803;28;20053;-71
2023/02/13 12:15:17;;;;;;;17.63;13.20;;;16.30;65.60;;;;;;4210353;28;20051;-72
2023/02/13 12:18:11;;;;;;;17.33;12.80;;;16.30;66.10;;;;;;4227093;28;20509;-71
2023/02/13 12:21:01;;;;;;;16.83;11.95;;;16.40;66.30;;;;;;4226655;27;20050;-71
2023/02/13 12:23:50;;;;;;;17.88;13.73;;;16.40;66.70;;;;;;4225946;27;20063;-72
2023/02/13 12:26:39;;;;;;;17.83;13.95;;;16.40;66.10;;;;;;4210012;28;20047;-72
2023/02/13 12:29:41;;;;;;;19.98;14.63;;;16.50;65.80;;;;;;4207789;28;20051;-71
2023/02/13 12:32:37;;;;;;;17.45;12.98;;;16.40;65.00;;;;;;4207449;28;20398;-70
2023/02/13 12:35:42;;;;;;;24.42;12.90;;;16.40;64.20;;;;;;4225860;27;20509;-71
2023/02/13 12:38:35;;;;;;;17.48;13.90;;;16.40;65.00;;;;;;4226091;27;20508;-70
2023/02/13 12:41:19;;;;;;;17.02;12.70;;;16.30;64.20;;;;;;4226565;27;20520;-69
2023/02/13 12:44:50;;;;;;;20.95;14.15;;;16.30;65.70;;;;;;4226619;27;20095;-71
2023/02/13 12:47:37;;;;;;;18.27;13.90;;;16.20;63.60;;;;;;4226600;27;20054;-72
2023/02/13 12:50:47;;;;;;;17.88;13.05;;;16.20;64.80;;;;;;4209757;28;20050;-71
2023/02/13 12:53:52;;;;;;;21.65;13.88;;;16.20;65.10;;;;;;4223784;27;20156;-71
2023/02/13 12:56:58;;;;;;;18.85;13.93;;;16.20;65.20;;;;;;4226400;28;20039;-70
2023/02/13 12:59:53;;;;;;;21.02;13.90;;;16.20;63.70;;;;;;4226008;27;20039;-70
2023/02/13 13:02:56;;;;;;;21.85;14.77;;;16.20;65.30;;;;;;4225758;27;20070;-70
2023/02/13 13:05:56;;;;;;;19.73;13.98;;;16.20;65.30;;;;;;4226342;27;20050;-69
2023/02/13 13:09:06;;;;;;;19.70;13.55;;;16.20;64.90;;;;;;4225242;28;20177;-71
2023/02/13 13:12:19;;;;;;;18.90;14.10;;;16.30;65.60;;;;;;4207650;28;20520;-70
2023/02/13 13:15:09;;;;;;;21.00;14.88;;;16.30;66.20;;;;;;4224697;27;20121;-72
2023/02/13 13:18:02;;;;;;;17.02;13.32;;;16.30;66.30;;;;;;4225883;27;20050;-70
2023/02/13 13:20:54;;;;;;;18.70;14.00;;;16.30;66.00;;;;;;4208887;28;20064;-71
2023/02/13 13:23:43;;;;;;;18.20;13.10;;;16.40;66.50;;;;;;4209278;28;20457;-72
2023/02/13 13:26:34;;;;;;;20.17;14.07;;;16.40;65.70;;;;;;4208938;28;20092;-70
2023/02/13 13:29:21;;;;;;;20.65;14.38;;;16.40;65.90;;;;;;4207774;28;20059;-69
2023/02/13 13:32:07;;;;;;;22.45;14.95;;;16.50;66.10;;;;;;4209464;28;20113;-71
2023/02/13 13:34:48;;;;;;;22.30;15.68;;;16.50;66.10;;;;;;4209445;28;20059;-70
2023/02/13 13:37:35;;;;;;;20.00;14.10;;;16.50;66.10;;;;;;4208823;28;20501;-72
2023/02/13 13:40:30;;;;;;;22.10;14.07;;;16.40;65.90;;;;;;4208891;28;20054;-70
2023/02/13 13:43:21;;;;;;;20.85;14.93;;;16.40;65.60;;;;;;4208758;28;20050;-61
2023/02/13 13:46:11;;;;;;;19.20;13.57;;;16.40;67.10;;;;;;4207971;28;20047;-62
2023/02/13 13:49:15;;;;;;;20.77;13.32;;;16.40;66.30;;;;;;4209006;28;20059;-62
2023/02/13 13:52:10;;;;;;;18.65;14.18;;;16.40;66.10;;;;;;4212699;28;20169;-63
2023/02/13 13:54:52;;;;;;;20.23;14.93;;;16.40;66.30;;;;;;4208751;28;20054;-62
2023/02/13 13:58:00;;;;;;;19.70;14.30;;;16.40;66.90;;;;;;4222783;28;20054;-62
2023/02/13 14:00:41;;;;;;;20.25;14.10;;;16.40;66.50;;;;;;4209010;28;20806;-62
2023/02/13 14:03:33;;;;;;;20.55;15.07;;;16.50;66.70;;;;;;4224452;28;20516;-63
2023/02/13 14:06:17;;;;;;;19.80;14.65;;;16.60;66.30;;;;;;4225602;28;20054;-64
2023/02/13 14:09:20;;;;;;;18.58;14.05;;;16.60;66.30;;;;;;4224663;28;20547;-62
2023/02/13 14:12:45;;;;;;;20.52;15.05;;;16.50;65.90;;;;;;4224927;28;20564;-63
2023/02/13 14:15:52;;;;;;;20.52;14.98;;;16.50;66.20;;;;;;4225091;28;20047;-62
2023/02/13 14:18:34;;;;;;;21.80;14.68;;;16.50;66.50;;;;;;4227547;27;20058;-63
2023/02/13 14:21:23;;;;;;;22.67;15.45;;;16.50;67.10;;;;;;4213442;27;20485;-64
2023/02/13 14:24:12;;;;;;;20.45;14.52;;;16.50;66.70;;;;;;4226889;27;20054;-63
2023/02/13 14:26:55;;;;;;;21.95;15.20;;;16.50;66.30;;;;;;4224527;27;20516;-62
2023/02/13 14:29:49;;;;;;;20.98;14.73;;;16.60;66.50;;;;;;4210238;28;20051;-62
2023/02/13 14:32:32;;;;;;;20.85;14.75;;;16.60;66.30;;;;;;4210559;28;20055;-62
2023/02/13 14:35:20;;;;;;;19.02;14.18;;;16.60;66.40;;;;;;4210888;28;20059;-63
2023/02/13 14:38:03;;;;;;;19.67;14.52;;;16.60;66.40;;;;;;4211753;28;20051;-63
2023/02/13 14:40:47;;;;;;;23.15;15.48;;;16.50;66.70;;;;;;4211491;28;20059;-61
2023/02/13 14:43:51;;;;;;;19.17;14.57;;;16.50;66.80;;;;;;4226976;27;20055;-62
2023/02/13 14:46:40;;;;;;;22.33;15.23;;;16.40;66.70;;;;;;4227008;28;20511;-62
2023/02/13 14:49:25;;;;;;;19.70;15.07;;;16.40;67.20;;;;;;4228615;27;20204;-63